sensor_id;sensor_type;location;lat;lon;timestamp;pressure;altitude;pressure_sealevel;temperature;humidity
31357;BME280;60001;48.404;11.738;2023-12-20T00:01:23;96265.41;;;5.92;59.92
31357;BME280;60001;48.404;11.738;2023-12-20T00:02:55;96264.41;;;5.93;59.34
31357;BME280;60001;48.404;11.738;2023-12-20T00:04:26;96260.25;;;5.85;59.23
31357;BME280;60001;48.404;11.738;2023-12-20T00:05:57;96250.19;;;5.82;59.25
31357;BME280;60001;48.404;11.738;2023-12-20T00:07:28;96251.69;;;5.90;59.28
31357;BME280;60001;48.404;11.738;2023-12-20T00:09:00;96250.84;;;5.96;59.48
31357;BME280;60001;48.404;11.738;2023-12-20T00:10:32;96251.41;;;5.98;59.12
31357;BME280;60001;48.404;11.738;2023-12-20T00:12:04;96245.50;;;6.02;59.19
31357;BME280;60001;48.404;11.738;2023-12-20T00:13:35;96243.53;;;5.98;59.04
31357;BME280;60001;48.404;11.738;2023-12-20T00:15:07;96245.50;;;6.02;59.41
31357;BME280;60001;48.404;11.738;2023-12-20T00:16:38;96250.66;;;6.09;58.52
31357;BME280;60001;48.404;11.738;2023-12-20T00:18:10;96243.09;;;6.01;57.89
31357;BME280;60001;48.404;11.738;2023-12-20T00:19:41;96251.91;;;6.18;57.47
31357;BME280;60001;48.404;11.738;2023-12-20T00:21:12;96246.75;;;6.12;57.84
31357;BME280;60001;48.404;11.738;2023-12-20T00:22:43;96253.72;;;6.18;58.10
31357;BME280;60001;48.404;11.738;2023-12-20T00:24:15;96234.44;;;6.00;58.36
31357;BME280;60001;48.404;11.738;2023-12-20T00:25:48;96246.88;;;6.05;58.49
31357;BME280;60001;48.404;11.738;2023-12-20T00:27:20;96244.59;;;6.09;58.53
31357;BME280;60001;48.404;11.738;2023-12-20T00:28:50;96238.34;;;6.10;58.84
31357;BME280;60001;48.404;11.738;2023-12-20T00:30:22;96236.06;;;6.13;59.01
31357;BME280;60001;48.404;11.738;2023-12-20T00:31:53;96231.03;;;6.12;59.02
31357;BME280;60001;48.404;11.738;2023-12-20T00:33:25;96226.03;;;6.10;58.79
31357;BME280;60001;48.404;11.738;2023-12-20T00:34:56;96227.28;;;6.08;58.64
31357;BME280;60001;48.404;11.738;2023-12-20T00:36:28;96226.63;;;6.12;58.68
31357;BME280;60001;48.404;11.738;2023-12-20T00:37:59;96220.63;;;5.93;58.91
31357;BME280;60001;48.404;11.738;2023-12-20T00:39:30;96215.63;;;6.03;58.69
31357;BME280;60001;48.404;11.738;2023-12-20T00:41:03;96215.88;;;6.02;58.90
31357;BME280;60001;48.404;11.738;2023-12-20T00:42:35;96196.72;;;6.01;59.01
31357;BME280;60001;48.404;11.738;2023-12-20T00:44:06;96214.19;;;6.08;59.18
31357;BME280;60001;48.404;11.738;2023-12-20T00:45:38;96204.50;;;6.08;58.84
31357;BME280;60001;48.404;11.738;2023-12-20T00:47:09;96210.06;;;6.12;59.62
31357;BME280;60001;48.404;11.738;2023-12-20T00:48:41;96204.69;;;5.95;59.05
31357;BME280;60001;48.404;11.738;2023-12-20T00:50:12;96209.19;;;5.88;59.29
31357;BME280;60001;48.404;11.738;2023-12-20T00:51:44;96200.06;;;5.90;59.31
31357;BME280;60001;48.404;11.738;2023-12-20T00:53:15;96194.72;;;5.85;58.78
31357;BME280;60001;48.404;11.738;2023-12-20T00:54:46;96201.84;;;5.96;58.47
31357;BME280;60001;48.404;11.738;2023-12-20T00:56:18;96198.69;;;6.06;58.24
31357;BME280;60001;48.404;11.738;2023-12-20T00:57:50;96192.03;;;6.03;58.61
31357;BME280;60001;48.404;11.738;2023-12-20T00:59:21;96197.19;;;6.10;58.53
31357;BME280;60001;48.404;11.738;2023-12-20T01:00:53;96192.41;;;6.07;58.98
31357;BME280;60001;48.404;11.738;2023-12-20T01:02:24;96197.66;;;6.19;58.55
31357;BME280;60001;48.404;11.738;2023-12-20T01:03:56;96195.50;;;6.16;59.02
31357;BME280;60001;48.404;11.738;2023-12-20T01:05:27;96205.50;;;6.07;58.72
31357;BME280;60001;48.404;11.738;2023-12-20T01:06:59;96197.56;;;6.14;58.97
31357;BME280;60001;48.404;11.738;2023-12-20T01:08:31;96198.56;;;6.24;58.41
31357;BME280;60001;48.404;11.738;2023-12-20T01:10:05;96203.63;;;6.26;58.96
31357;BME280;60001;48.404;11.738;2023-12-20T01:11:40;96174.41;;;5.99;58.89
31357;BME280;60001;48.404;11.738;2023-12-20T01:13:12;96200.63;;;6.22;59.77
31357;BME280;60001;48.404;11.738;2023-12-20T01:14:43;96197.22;;;6.22;60.04
31357;BME280;60001;48.404;11.738;2023-12-20T01:16:15;96199.72;;;6.28;59.90
31357;BME280;60001;48.404;11.738;2023-12-20T01:17:46;96208.03;;;6.14;59.65
31357;BME280;60001;48.404;11.738;2023-12-20T01:19:17;96204.28;;;6.21;59.30
31357;BME280;60001;48.404;11.738;2023-12-20T01:20:49;96201.19;;;6.24;60.44
31357;BME280;60001;48.404;11.738;2023-12-20T01:22:20;96188.44;;;6.28;59.97
31357;BME280;60001;48.404;11.738;2023-12-20T01:23:51;96191.63;;;6.30;60.18
31357;BME280;60001;48.404;11.738;2023-12-20T01:25:25;96189.00;;;6.30;60.71
31357;BME280;60001;48.404;11.738;2023-12-20T01:26:58;96185.47;;;6.24;60.82
31357;BME280;60001;48.404;11.738;2023-12-20T01:28:29;96159.03;;;6.14;60.37
31357;BME280;60001;48.404;11.738;2023-12-20T01:30:00;96188.31;;;6.23;60.93
31357;BME280;60001;48.404;11.738;2023-12-20T01:31:31;96181.81;;;6.25;61.10
31357;BME280;60001;48.404;11.738;2023-12-20T01:33:03;96181.38;;;6.28;60.64
31357;BME280;60001;48.404;11.738;2023-12-20T01:34:34;96187.19;;;6.30;60.30
31357;BME280;60001;48.404;11.738;2023-12-20T01:36:06;96191.31;;;6.26;61.44
31357;BME280;60001;48.404;11.738;2023-12-20T01:37:38;96184.34;;;6.20;61.20
31357;BME280;60001;48.404;11.738;2023-12-20T01:39:09;96185.03;;;6.27;60.75
31357;BME280;60001;48.404;11.738;2023-12-20T01:40:41;96173.28;;;6.30;60.84
31357;BME280;60001;48.404;11.738;2023-12-20T01:42:13;96172.81;;;6.21;60.87
31357;BME280;60001;48.404;11.738;2023-12-20T01:43:45;96175.78;;;6.25;61.04
31357;BME280;60001;48.404;11.738;2023-12-20T01:45:16;96169.84;;;6.29;61.07
31357;BME280;60001;48.404;11.738;2023-12-20T01:46:48;96155.84;;;6.24;60.54
31357;BME280;60001;48.404;11.738;2023-12-20T01:48:19;96159.94;;;6.31;60.67
31357;BME280;60001;48.404;11.738;2023-12-20T01:49:52;96152.44;;;6.35;60.24
31357;BME280;60001;48.404;11.738;2023-12-20T01:51:23;96148.41;;;6.32;60.87
31357;BME280;60001;48.404;11.738;2023-12-20T01:53:00;96148.53;;;6.38;61.15
31357;BME280;60001;48.404;11.738;2023-12-20T01:54:31;96148.53;;;6.49;60.28
31357;BME280;60001;48.404;11.738;2023-12-20T01:56:04;96146.47;;;6.40;59.77
31357;BME280;60001;48.404;11.738;2023-12-20T01:57:37;96147.31;;;6.40;60.28
31357;BME280;60001;48.404;11.738;2023-12-20T01:59:09;96138.06;;;6.49;60.51
31357;BME280;60001;48.404;11.738;2023-12-20T02:00:40;96134.41;;;6.50;60.20
31357;BME280;60001;48.404;11.738;2023-12-20T02:02:12;96131.34;;;6.42;60.26
31357;BME280;60001;48.404;11.738;2023-12-20T02:03:44;96125.50;;;6.51;59.93
31357;BME280;60001;48.404;11.738;2023-12-20T02:05:16;96126.66;;;6.55;60.12
31357;BME280;60001;48.404;11.738;2023-12-20T02:06:48;96118.53;;;6.57;60.66
31357;BME280;60001;48.404;11.738;2023-12-20T02:08:21;96116.28;;;6.49;60.59
31357;BME280;60001;48.404;11.738;2023-12-20T02:09:52;96120.13;;;6.58;61.00
31357;BME280;60001;48.404;11.738;2023-12-20T02:11:25;96104.50;;;6.63;60.58
31357;BME280;60001;48.404;11.738;2023-12-20T02:12:58;96102.91;;;6.62;61.09
31357;BME280;60001;48.404;11.738;2023-12-20T02:14:29;96095.03;;;6.62;61.18
31357;BME280;60001;48.404;11.738;2023-12-20T02:16:01;96102.00;;;6.56;61.78
31357;BME280;60001;48.404;11.738;2023-12-20T02:17:32;96097.31;;;6.58;61.20
31357;BME280;60001;48.404;11.738;2023-12-20T02:19:13;96103.59;;;6.57;61.93
31357;BME280;60001;48.404;11.738;2023-12-20T02:20:45;96098.59;;;6.56;61.39
31357;BME280;60001;48.404;11.738;2023-12-20T02:22:18;96099.16;;;6.58;61.19
31357;BME280;60001;48.404;11.738;2023-12-20T02:23:49;96091.84;;;6.60;61.17
31357;BME280;60001;48.404;11.738;2023-12-20T02:25:21;96087.38;;;6.60;61.58
31357;BME280;60001;48.404;11.738;2023-12-20T02:26:52;96082.13;;;6.60;61.36
31357;BME280;60001;48.404;11.738;2023-12-20T02:28:23;96090.00;;;6.60;61.46
31357;BME280;60001;48.404;11.738;2023-12-20T02:29:55;96090.25;;;6.59;61.42
31357;BME280;60001;48.404;11.738;2023-12-20T02:31:26;96092.31;;;6.57;61.92
31357;BME280;60001;48.404;11.738;2023-12-20T02:33:01;96087.97;;;6.63;61.58
31357;BME280;60001;48.404;11.738;2023-12-20T02:34:31;96084.56;;;6.62;61.01
31357;BME280;60001;48.404;11.738;2023-12-20T02:36:04;96086.81;;;6.58;61.63
31357;BME280;60001;48.404;11.738;2023-12-20T02:37:36;96086.38;;;6.62;61.41
31357;BME280;60001;48.404;11.738;2023-12-20T02:39:08;96080.53;;;6.59;61.39
31357;BME280;60001;48.404;11.738;2023-12-20T02:40:38;96088.66;;;6.58;61.30
31357;BME280;60001;48.404;11.738;2023-12-20T02:42:10;96072.47;;;6.61;61.20
31357;BME280;60001;48.404;11.738;2023-12-20T02:43:41;96079.84;;;6.64;61.40
31357;BME280;60001;48.404;11.738;2023-12-20T02:45:13;96080.53;;;6.59;61.15
31357;BME280;60001;48.404;11.738;2023-12-20T02:46:44;96086.28;;;6.45;61.02
31357;BME280;60001;48.404;11.738;2023-12-20T02:48:16;96088.09;;;6.56;61.24
31357;BME280;60001;48.404;11.738;2023-12-20T02:49:47;96092.44;;;6.50;61.66
31357;BME280;60001;48.404;11.738;2023-12-20T02:51:19;96093.22;;;6.39;61.41
31357;BME280;60001;48.404;11.738;2023-12-20T02:52:51;96097.56;;;6.45;61.78
31357;BME280;60001;48.404;11.738;2023-12-20T02:54:23;96092.22;;;6.40;61.61
31357;BME280;60001;48.404;11.738;2023-12-20T02:55:53;96092.00;;;6.42;61.80
31357;BME280;60001;48.404;11.738;2023-12-20T02:57:25;96084.13;;;6.42;62.04
31357;BME280;60001;48.404;11.738;2023-12-20T02:58:56;96082.53;;;6.41;62.05
31357;BME280;60001;48.404;11.738;2023-12-20T03:00:27;96074.44;;;6.42;62.19
31357;BME280;60001;48.404;11.738;2023-12-20T03:01:58;96086.03;;;6.46;61.63
31357;BME280;60001;48.404;11.738;2023-12-20T03:03:30;96080.34;;;6.49;61.60
31357;BME280;60001;48.404;11.738;2023-12-20T03:05:02;96078.53;;;6.50;61.19
31357;BME280;60001;48.404;11.738;2023-12-20T03:06:33;96081.03;;;6.56;61.06
31357;BME280;60001;48.404;11.738;2023-12-20T03:08:06;96075.28;;;6.59;60.24
31357;BME280;60001;48.404;11.738;2023-12-20T03:09:37;96077.59;;;6.56;60.40
31357;BME280;60001;48.404;11.738;2023-12-20T03:11:08;96076.34;;;6.58;60.51
31357;BME280;60001;48.404;11.738;2023-12-20T03:12:40;96079.38;;;6.67;60.61
31357;BME280;60001;48.404;11.738;2023-12-20T03:14:11;96075.09;;;6.61;60.61
31357;BME280;60001;48.404;11.738;2023-12-20T03:15:43;96077.13;;;6.59;60.56
31357;BME280;60001;48.404;11.738;2023-12-20T03:17:13;96085.66;;;6.66;60.35
31357;BME280;60001;48.404;11.738;2023-12-20T03:18:45;96084.41;;;6.69;60.29
31357;BME280;60001;48.404;11.738;2023-12-20T03:20:16;96089.78;;;6.62;60.86
31357;BME280;60001;48.404;11.738;2023-12-20T03:21:47;96092.31;;;6.57;61.17
31357;BME280;60001;48.404;11.738;2023-12-20T03:23:19;96096.19;;;6.54;61.03
31357;BME280;60001;48.404;11.738;2023-12-20T03:24:51;96103.59;;;6.57;61.07
31357;BME280;60001;48.404;11.738;2023-12-20T03:26:22;96100.97;;;6.46;62.08
31357;BME280;60001;48.404;11.738;2023-12-20T03:27:54;96104.75;;;6.50;61.90
31357;BME280;60001;48.404;11.738;2023-12-20T03:29:24;96101.66;;;6.53;62.01
31357;BME280;60001;48.404;11.738;2023-12-20T03:30:56;96096.41;;;6.53;62.70
31357;BME280;60001;48.404;11.738;2023-12-20T03:32:27;96102.91;;;6.50;62.75
31357;BME280;60001;48.404;11.738;2023-12-20T03:33:59;96099.16;;;6.46;63.67
31357;BME280;60001;48.404;11.738;2023-12-20T03:35:29;96100.84;;;6.52;63.39
31357;BME280;60001;48.404;11.738;2023-12-20T03:37:01;96100.41;;;6.55;63.91
31357;BME280;60001;48.404;11.738;2023-12-20T03:38:33;96101.09;;;6.63;63.61
31357;BME280;60001;48.404;11.738;2023-12-20T03:40:06;96103.13;;;6.60;62.88
31357;BME280;60001;48.404;11.738;2023-12-20T03:41:36;96101.09;;;6.63;63.07
31357;BME280;60001;48.404;11.738;2023-12-20T03:43:08;96108.03;;;6.57;63.64
31357;BME280;60001;48.404;11.738;2023-12-20T03:44:39;96096.94;;;6.67;63.57
31357;BME280;60001;48.404;11.738;2023-12-20T03:46:11;96105.84;;;6.66;63.68
31357;BME280;60001;48.404;11.738;2023-12-20T03:47:43;96110.28;;;6.77;62.96
31357;BME280;60001;48.404;11.738;2023-12-20T03:49:13;96119.41;;;6.74;63.54
31357;BME280;60001;48.404;11.738;2023-12-20T03:50:46;96115.56;;;6.65;63.36
31357;BME280;60001;48.404;11.738;2023-12-20T03:52:16;96118.66;;;6.62;63.22
31357;BME280;60001;48.404;11.738;2023-12-20T03:53:49;96123.44;;;6.65;63.44
31357;BME280;60001;48.404;11.738;2023-12-20T03:55:20;96132.88;;;6.66;64.06
31357;BME280;60001;48.404;11.738;2023-12-20T03:56:52;96133.00;;;6.71;64.73
31357;BME280;60001;48.404;11.738;2023-12-20T03:58:22;96127.31;;;6.63;65.64
31357;BME280;60001;48.404;11.738;2023-12-20T03:59:54;96125.25;;;6.65;65.95
31357;BME280;60001;48.404;11.738;2023-12-20T04:01:25;96117.63;;;6.63;66.29
31357;BME280;60001;48.404;11.738;2023-12-20T04:02:57;96133.47;;;6.68;67.64
31357;BME280;60001;48.404;11.738;2023-12-20T04:04:27;96137.34;;;6.66;67.64
31357;BME280;60001;48.404;11.738;2023-12-20T04:05:59;96146.81;;;6.67;68.38
31357;BME280;60001;48.404;11.738;2023-12-20T04:07:31;96142.47;;;6.60;68.89
31357;BME280;60001;48.404;11.738;2023-12-20T04:09:03;96146.59;;;6.45;69.60
31357;BME280;60001;48.404;11.738;2023-12-20T04:10:35;96136.22;;;6.50;70.14
31357;BME280;60001;48.404;11.738;2023-12-20T04:12:06;96138.97;;;6.55;70.97
31357;BME280;60001;48.404;11.738;2023-12-20T04:13:38;96147.72;;;6.60;71.02
31357;BME280;60001;48.404;11.738;2023-12-20T04:15:11;96138.50;;;6.58;71.49
31357;BME280;60001;48.404;11.738;2023-12-20T04:16:42;96142.94;;;6.46;72.75
31357;BME280;60001;48.404;11.738;2023-12-20T04:18:13;96131.88;;;6.44;72.33
31357;BME280;60001;48.404;11.738;2023-12-20T04:19:45;96133.16;;;6.41;73.99
31357;BME280;60001;48.404;11.738;2023-12-20T04:21:15;96128.47;;;6.31;74.38
31357;BME280;60001;48.404;11.738;2023-12-20T04:22:47;96130.19;;;6.38;74.87
31357;BME280;60001;48.404;11.738;2023-12-20T04:24:19;96122.44;;;6.43;74.92
31357;BME280;60001;48.404;11.738;2023-12-20T04:25:51;96128.13;;;6.40;75.68
31357;BME280;60001;48.404;11.738;2023-12-20T04:27:22;96122.66;;;6.41;75.65
31357;BME280;60001;48.404;11.738;2023-12-20T04:28:53;96124.38;;;6.36;75.76
31357;BME280;60001;48.404;11.738;2023-12-20T04:30:24;96128.47;;;6.31;76.02
31357;BME280;60001;48.404;11.738;2023-12-20T04:31:56;96123.25;;;6.20;76.43
31357;BME280;60001;48.404;11.738;2023-12-20T04:33:27;96133.25;;;6.23;76.90
31357;BME280;60001;48.404;11.738;2023-12-20T04:34:58;96117.75;;;6.10;76.99
31357;BME280;60001;48.404;11.738;2023-12-20T04:36:29;96136.91;;;6.22;76.78
31357;BME280;60001;48.404;11.738;2023-12-20T04:38:01;96138.88;;;6.26;77.00
31357;BME280;60001;48.404;11.738;2023-12-20T04:39:33;96142.50;;;6.14;77.89
31357;BME280;60001;48.404;11.738;2023-12-20T04:41:05;96142.84;;;6.06;78.10
31357;BME280;60001;48.404;11.738;2023-12-20T04:42:36;96148.28;;;6.04;78.27
31357;BME280;60001;48.404;11.738;2023-12-20T04:44:08;96147.63;;;6.09;78.75
31357;BME280;60001;48.404;11.738;2023-12-20T04:45:38;96153.75;;;6.02;79.14
31357;BME280;60001;48.404;11.738;2023-12-20T04:47:10;96153.53;;;6.04;79.99
31357;BME280;60001;48.404;11.738;2023-12-20T04:48:41;96146.59;;;6.10;79.46
31357;BME280;60001;48.404;11.738;2023-12-20T04:50:13;96149.56;;;6.13;79.39
31357;BME280;60001;48.404;11.738;2023-12-20T04:51:45;96154.34;;;6.16;80.56
31357;BME280;60001;48.404;11.738;2023-12-20T04:53:16;96157.63;;;6.12;80.48
31357;BME280;60001;48.404;11.738;2023-12-20T04:54:50;96153.53;;;6.04;81.06
31357;BME280;60001;48.404;11.738;2023-12-20T04:56:21;96156.03;;;6.11;81.31
31357;BME280;60001;48.404;11.738;2023-12-20T04:57:52;96161.09;;;6.12;81.57
31357;BME280;60001;48.404;11.738;2023-12-20T04:59:25;96150.00;;;6.10;81.69
31357;BME280;60001;48.404;11.738;2023-12-20T05:00:56;96157.31;;;6.08;82.12
31357;BME280;60001;48.404;11.738;2023-12-20T05:02:27;96150.47;;;6.07;82.29
31357;BME280;60001;48.404;11.738;2023-12-20T05:03:58;96149.78;;;6.12;82.15
31357;BME280;60001;48.404;11.738;2023-12-20T05:05:30;96153.53;;;6.04;83.30
31357;BME280;60001;48.404;11.738;2023-12-20T05:07:00;96148.41;;;6.09;82.62
31357;BME280;60001;48.404;11.738;2023-12-20T05:08:32;96159.66;;;5.98;83.52
31357;BME280;60001;48.404;11.738;2023-12-20T05:10:06;96161.41;;;5.92;83.59
31357;BME280;60001;48.404;11.738;2023-12-20T05:11:38;96155.81;;;6.00;83.63
31357;BME280;60001;48.404;11.738;2023-12-20T05:13:09;96167.00;;;6.08;84.10
31357;BME280;60001;48.404;11.738;2023-12-20T05:14:41;96162.00;;;6.06;84.10
31357;BME280;60001;48.404;11.738;2023-12-20T05:16:12;96157.03;;;5.98;84.06
31357;BME280;60001;48.404;11.738;2023-12-20T05:17:44;96170.88;;;6.05;83.71
31357;BME280;60001;48.404;11.738;2023-12-20T05:19:15;96165.75;;;5.98;84.64
31357;BME280;60001;48.404;11.738;2023-12-20T05:20:47;96167.44;;;5.93;84.86
31357;BME280;60001;48.404;11.738;2023-12-20T05:22:18;96169.25;;;6.04;85.25
31357;BME280;60001;48.404;11.738;2023-12-20T05:23:50;96173.69;;;6.03;85.37
31357;BME280;60001;48.404;11.738;2023-12-20T05:25:22;96173.59;;;5.98;85.43
31357;BME280;60001;48.404;11.738;2023-12-20T05:26:54;96177.81;;;5.99;85.43
31357;BME280;60001;48.404;11.738;2023-12-20T05:28:24;96163.56;;;5.95;85.47
31357;BME280;60001;48.404;11.738;2023-12-20T05:29:57;96181.22;;;6.00;85.32
31357;BME280;60001;48.404;11.738;2023-12-20T05:31:28;96185.19;;;5.91;86.18
31357;BME280;60001;48.404;11.738;2023-12-20T05:32:59;96185.47;;;5.83;87.26
31357;BME280;60001;48.404;11.738;2023-12-20T05:34:30;96180.38;;;5.88;86.54
31357;BME280;60001;48.404;11.738;2023-12-20T05:36:02;96187.31;;;5.82;87.13
31357;BME280;60001;48.404;11.738;2023-12-20T05:37:33;96193.03;;;5.91;86.79
31357;BME280;60001;48.404;11.738;2023-12-20T05:39:05;96191.47;;;6.01;86.79
31357;BME280;60001;48.404;11.738;2023-12-20T05:40:37;96195.13;;;6.00;86.47
31357;BME280;60001;48.404;11.738;2023-12-20T05:42:09;96184.25;;;5.85;86.96
31357;BME280;60001;48.404;11.738;2023-12-20T05:43:39;96194.19;;;5.95;87.20
31357;BME280;60001;48.404;11.738;2023-12-20T05:45:11;96192.84;;;5.92;87.56
31357;BME280;60001;48.404;11.738;2023-12-20T05:46:42;96189.59;;;5.90;87.29
31357;BME280;60001;48.404;11.738;2023-12-20T05:48:14;96197.88;;;5.75;88.44
31357;BME280;60001;48.404;11.738;2023-12-20T05:49:45;96198.09;;;5.74;88.28
31357;BME280;60001;48.404;11.738;2023-12-20T05:51:16;96208.34;;;5.75;88.57
31357;BME280;60001;48.404;11.738;2023-12-20T05:52:47;96207.22;;;5.83;87.88
31357;BME280;60001;48.404;11.738;2023-12-20T05:54:19;96197.66;;;5.77;88.19
31357;BME280;60001;48.404;11.738;2023-12-20T05:55:51;96214.06;;;5.72;88.93
31357;BME280;60001;48.404;11.738;2023-12-20T05:57:23;96207.66;;;5.68;88.62
31357;BME280;60001;48.404;11.738;2023-12-20T05:58:54;96206.28;;;5.66;88.49
31357;BME280;60001;48.404;11.738;2023-12-20T06:00:26;96211.13;;;5.81;88.88
31357;BME280;60001;48.404;11.738;2023-12-20T06:01:56;96214.00;;;5.91;88.14
31357;BME280;60001;48.404;11.738;2023-12-20T06:03:28;96212.22;;;5.91;88.12
31357;BME280;60001;48.404;11.738;2023-12-20T06:05:00;96214.44;;;5.88;88.04
31357;BME280;60001;48.404;11.738;2023-12-20T06:06:32;96210.00;;;5.88;88.02
31357;BME280;60001;48.404;11.738;2023-12-20T06:08:03;96220.66;;;5.75;88.62
31357;BME280;60001;48.404;11.738;2023-12-20T06:09:36;96225.47;;;5.78;88.38
31357;BME280;60001;48.404;11.738;2023-12-20T06:11:09;96228.00;;;5.85;88.15
31357;BME280;60001;48.404;11.738;2023-12-20T06:12:40;96227.31;;;5.89;88.01
31357;BME280;60001;48.404;11.738;2023-12-20T06:14:12;96229.19;;;6.00;87.60
31357;BME280;60001;48.404;11.738;2023-12-20T06:15:42;96234.97;;;5.91;87.77
31357;BME280;60001;48.404;11.738;2023-12-20T06:17:14;96233.56;;;5.88;87.70
31357;BME280;60001;48.404;11.738;2023-12-20T06:18:46;96225.56;;;5.83;87.74
31357;BME280;60001;48.404;11.738;2023-12-20T06:20:17;96226.50;;;5.89;87.91
31357;BME280;60001;48.404;11.738;2023-12-20T06:21:48;96235.50;;;5.81;87.95
31357;BME280;60001;48.404;11.738;2023-12-20T06:23:19;96231.69;;;5.77;88.71
31357;BME280;60001;48.404;11.738;2023-12-20T06:24:53;96239.88;;;5.69;88.87
31357;BME280;60001;48.404;11.738;2023-12-20T06:26:25;96237.53;;;5.79;88.50
31357;BME280;60001;48.404;11.738;2023-12-20T06:27:57;96243.13;;;5.83;87.98
31357;BME280;60001;48.404;11.738;2023-12-20T06:29:28;96247.78;;;5.81;87.72
31357;BME280;60001;48.404;11.738;2023-12-20T06:30:59;96247.22;;;5.78;88.27
31357;BME280;60001;48.404;11.738;2023-12-20T06:32:32;96251.22;;;5.81;88.46
31357;BME280;60001;48.404;11.738;2023-12-20T06:34:02;96251.44;;;5.80;88.18
31357;BME280;60001;48.404;11.738;2023-12-20T06:35:34;96242.59;;;5.62;89.24
31357;BME280;60001;48.404;11.738;2023-12-20T06:37:05;96249.34;;;5.70;88.87
31357;BME280;60001;48.404;11.738;2023-12-20T06:38:36;96252.97;;;5.69;88.84
31357;BME280;60001;48.404;11.738;2023-12-20T06:40:08;96245.66;;;5.59;88.67
31357;BME280;60001;48.404;11.738;2023-12-20T06:41:42;96255.16;;;5.72;88.89
31357;BME280;60001;48.404;11.738;2023-12-20T06:43:13;96252.56;;;5.72;88.89
31357;BME280;60001;48.404;11.738;2023-12-20T06:44:45;96265.19;;;5.75;88.58
31357;BME280;60001;48.404;11.738;2023-12-20T06:46:16;96254.94;;;5.73;88.80
31357;BME280;60001;48.404;11.738;2023-12-20T06:47:47;96261.47;;;5.83;88.19
31357;BME280;60001;48.404;11.738;2023-12-20T06:49:18;96254.63;;;5.82;87.91
31357;BME280;60001;48.404;11.738;2023-12-20T06:50:50;96268.19;;;5.78;87.87
31357;BME280;60001;48.404;11.738;2023-12-20T06:52:21;96264.22;;;5.58;88.59
31357;BME280;60001;48.404;11.738;2023-12-20T06:53:52;96261.50;;;5.64;88.63
31357;BME280;60001;48.404;11.738;2023-12-20T06:55:23;96252.63;;;5.65;88.32
31357;BME280;60001;48.404;11.738;2023-12-20T06:56:56;96262.66;;;5.68;88.19
31357;BME280;60001;48.404;11.738;2023-12-20T06:58:30;96268.59;;;5.75;88.37
31357;BME280;60001;48.404;11.738;2023-12-20T07:00:02;96270.22;;;5.76;88.67
31357;BME280;60001;48.404;11.738;2023-12-20T07:01:33;96276.03;;;5.78;88.17
31357;BME280;60001;48.404;11.738;2023-12-20T07:03:05;96279.69;;;5.77;87.75
31357;BME280;60001;48.404;11.738;2023-12-20T07:04:39;96291.16;;;5.76;87.03
31357;BME280;60001;48.404;11.738;2023-12-20T07:06:11;96288.28;;;5.66;87.44
31357;BME280;60001;48.404;11.738;2023-12-20T07:07:41;96295.91;;;5.68;87.76
31357;BME280;60001;48.404;11.738;2023-12-20T07:09:14;96295.13;;;5.67;88.21
31357;BME280;60001;48.404;11.738;2023-12-20T07:10:45;96291.94;;;5.65;88.34
31357;BME280;60001;48.404;11.738;2023-12-20T07:12:18;96298.38;;;5.63;88.29
31357;BME280;60001;48.404;11.738;2023-12-20T07:13:49;96297.59;;;5.62;88.65
31357;BME280;60001;48.404;11.738;2023-12-20T07:15:21;96304.16;;;5.71;88.45
31357;BME280;60001;48.404;11.738;2023-12-20T07:16:52;96307.78;;;5.70;87.45
31357;BME280;60001;48.404;11.738;2023-12-20T07:18:24;96300.34;;;5.67;87.23
31357;BME280;60001;48.404;11.738;2023-12-20T07:19:54;96308.44;;;5.66;87.32
31357;BME280;60001;48.404;11.738;2023-12-20T07:21:26;96303.84;;;5.61;88.15
31357;BME280;60001;48.404;11.738;2023-12-20T07:22:57;96312.16;;;5.58;87.92
31357;BME280;60001;48.404;11.738;2023-12-20T07:24:28;96315.19;;;5.55;88.12
31357;BME280;60001;48.404;11.738;2023-12-20T07:25:59;96318.84;;;5.54;88.76
31357;BME280;60001;48.404;11.738;2023-12-20T07:27:32;96314.34;;;5.43;88.77
31357;BME280;60001;48.404;11.738;2023-12-20T07:29:03;96313.69;;;5.47;88.72
31357;BME280;60001;48.404;11.738;2023-12-20T07:30:39;96319.63;;;5.55;88.73
31357;BME280;60001;48.404;11.738;2023-12-20T07:32:10;96321.75;;;5.46;89.54
31357;BME280;60001;48.404;11.738;2023-12-20T07:33:41;96323.66;;;5.57;88.81
31357;BME280;60001;48.404;11.738;2023-12-20T07:35:12;96320.16;;;5.63;88.84
31357;BME280;60001;48.404;11.738;2023-12-20T07:36:44;96309.50;;;5.76;88.49
31357;BME280;60001;48.404;11.738;2023-12-20T07:38:15;96316.66;;;5.69;88.77
31357;BME280;60001;48.404;11.738;2023-12-20T07:39:46;96314.78;;;5.58;88.84
31357;BME280;60001;48.404;11.738;2023-12-20T07:41:18;96311.78;;;5.55;89.24
31357;BME280;60001;48.404;11.738;2023-12-20T07:42:53;96319.56;;;5.61;88.84
31357;BME280;60001;48.404;11.738;2023-12-20T07:44:24;96325.41;;;5.63;88.50
31357;BME280;60001;48.404;11.738;2023-12-20T07:45:55;96320.59;;;5.60;88.16
31357;BME280;60001;48.404;11.738;2023-12-20T07:47:27;96324.09;;;5.72;87.75
31357;BME280;60001;48.404;11.738;2023-12-20T07:48:58;96314.09;;;5.63;87.81
31357;BME280;60001;48.404;11.738;2023-12-20T07:50:30;96324.09;;;5.54;88.27
31357;BME280;60001;48.404;11.738;2023-12-20T07:52:00;96315.44;;;5.54;88.33
31357;BME280;60001;48.404;11.738;2023-12-20T07:53:32;96323.81;;;5.44;87.96
31357;BME280;60001;48.404;11.738;2023-12-20T07:55:04;96314.28;;;5.49;88.41
31357;BME280;60001;48.404;11.738;2023-12-20T07:56:38;96320.50;;;5.48;88.47
31357;BME280;60001;48.404;11.738;2023-12-20T07:58:11;96326.13;;;5.52;88.28
31357;BME280;60001;48.404;11.738;2023-12-20T07:59:43;96325.25;;;5.58;87.25
31357;BME280;60001;48.404;11.738;2023-12-20T08:01:16;96328.03;;;5.63;87.73
31357;BME280;60001;48.404;11.738;2023-12-20T08:02:48;96336.59;;;5.52;87.67
31357;BME280;60001;48.404;11.738;2023-12-20T08:04:19;96333.53;;;5.55;87.45
31357;BME280;60001;48.404;11.738;2023-12-20T08:05:51;96337.97;;;5.55;87.69